createdAt,value
2022-09-05T00:01:27.797Z,6.32
2022-09-05T00:04:08.412Z,6.50
2022-09-05T00:06:58.665Z,7.25
2022-09-05T00:09:44.567Z,6.75
2022-09-05T00:12:13.148Z,6.68
2022-09-05T00:15:16.165Z,6.88
2022-09-05T00:18:45.480Z,6.30
2022-09-05T00:24:22.209Z,5.78
2022-09-05T00:24:35.106Z,6.17
2022-09-05T00:26:34.865Z,6.10
2022-09-05T00:29:08.216Z,6.28
2022-09-05T00:31:56.811Z,5.90
2022-09-05T00:34:48.082Z,5.88
2022-09-05T00:37:28.801Z,5.97
2022-09-05T00:40:17.329Z,6.30
2022-09-05T00:42:50.119Z,5.97
2022-09-05T00:45:25.305Z,6.15
2022-09-05T00:48:00.402Z,5.57
2022-09-05T00:50:35.120Z,5.87
2022-09-05T00:53:08.027Z,5.93
2022-09-05T00:55:41.437Z,5.90
2022-09-05T00:58:34.678Z,5.93
2022-09-05T01:01:12.085Z,6.25
2022-09-05T01:03:59.090Z,6.43
2022-09-05T01:06:38.452Z,5.97
2022-09-05T01:09:13.515Z,6.00
2022-09-05T01:11:49.401Z,5.60
2022-09-05T01:14:36.807Z,5.90
2022-09-05T01:17:28.632Z,6.05
2022-09-05T01:20:19.592Z,6.03
2022-09-05T01:23:11.309Z,6.22
2022-09-05T01:25:54.882Z,5.90
2022-09-05T01:29:13.323Z,5.78
2022-09-05T01:31:20.042Z,6.00
2022-09-05T01:33:54.010Z,6.07
2022-09-05T01:36:33.812Z,6.32
2022-09-05T01:40:10.526Z,6.13
2022-09-05T01:41:59.063Z,5.95
2022-09-05T01:44:40.756Z,5.93
2022-09-05T01:47:29.281Z,6.35
2022-09-05T01:50:06.300Z,6.13
2022-09-05T01:52:57.742Z,6.00
2022-09-05T01:55:37.871Z,6.10
2022-09-05T01:58:28.888Z,6.20
2022-09-05T02:01:27.982Z,5.67
2022-09-05T02:03:59.789Z,5.72
2022-09-05T02:06:36.669Z,6.20
2022-09-05T02:09:15.762Z,5.95
2022-09-05T02:11:47.101Z,6.15
2022-09-05T02:14:34.137Z,5.85
2022-09-05T02:17:44.762Z,6.03
2022-09-05T02:20:09.651Z,6.28
2022-09-05T02:22:43.853Z,6.07
2022-09-05T02:25:30.486Z,6.10
2022-09-05T02:28:11.368Z,6.55
2022-09-05T02:30:47.337Z,6.05
2022-09-05T02:33:35.545Z,5.78
2022-09-05T02:36:09.245Z,6.20
2022-09-05T02:40:38.983Z,5.63
2022-09-05T02:45:21.235Z,6.30
2022-09-05T02:45:24.185Z,5.65
2022-09-05T02:47:22.470Z,5.60
2022-09-05T02:56:02.909Z,5.30
2022-09-05T02:57:27.887Z,4.93
2022-09-05T02:57:36.307Z,5.10
2022-09-05T02:59:09.700Z,5.10
2022-09-05T03:01:56.448Z,5.20
2022-09-05T03:04:32.619Z,4.95
2022-09-05T03:07:13.074Z,5.40
2022-09-05T03:09:55.915Z,5.07
2022-09-05T03:13:01.893Z,4.90
2022-09-05T03:16:06.281Z,4.63
2022-09-05T03:19:03.520Z,4.33
2022-09-05T03:22:08.790Z,4.25
2022-09-05T03:25:22.292Z,4.35
2022-09-05T03:28:27.468Z,4.82
2022-09-05T03:31:22.293Z,4.97
2022-09-05T03:34:17.339Z,4.70
2022-09-05T03:37:20.653Z,4.13
2022-09-05T03:40:36.518Z,4.63
2022-09-05T03:43:43.633Z,5.80
2022-09-05T03:46:28.608Z,4.93
2022-09-05T03:50:18.674Z,4.72
2022-09-05T03:57:07.376Z,4.25
2022-09-05T03:57:27.546Z,4.10
2022-09-05T03:58:16.934Z,4.85
2022-09-05T04:01:28.302Z,5.18
2022-09-05T04:08:09.672Z,4.93
2022-09-05T04:08:24.042Z,4.90
2022-09-05T04:09:50.554Z,3.95
2022-09-05T04:12:20.347Z,4.35
2022-09-05T04:14:52.609Z,3.78
2022-09-05T04:17:27.216Z,4.25
2022-09-05T04:20:01.013Z,4.25
2022-09-05T04:22:36.948Z,4.47
2022-09-05T04:25:11.070Z,4.30
2022-09-05T04:27:42.363Z,4.57
2022-09-05T04:30:38.276Z,4.50
2022-09-05T04:33:19.400Z,4.47
2022-09-05T04:35:57.446Z,5.05
2022-09-05T04:38:38.068Z,4.82
2022-09-05T04:41:09.723Z,4.63
2022-09-05T04:43:42.065Z,4.90
2022-09-05T04:46:19.379Z,4.90
2022-09-05T04:48:54.693Z,5.13
2022-09-05T04:52:00.259Z,4.60
2022-09-05T04:54:36.388Z,4.97
2022-09-05T04:57:14.040Z,5.05
2022-09-05T05:05:58.788Z,5.38
2022-09-05T05:06:02.609Z,5.40
2022-09-05T05:06:11.747Z,5.45
2022-09-05T05:08:31.742Z,5.20
2022-09-05T05:16:34.110Z,5.30
2022-09-05T05:17:56.165Z,5.32
2022-09-05T05:18:14.078Z,5.22
2022-09-05T05:19:48.930Z,5.25
2022-09-05T05:22:33.639Z,5.32
2022-09-05T05:25:03.262Z,5.25
2022-09-05T05:27:39.261Z,5.53
2022-09-05T05:30:09.185Z,6.13
2022-09-05T05:32:44.846Z,6.05
2022-09-05T05:35:15.756Z,6.47
2022-09-05T05:37:45.894Z,6.53
2022-09-05T05:40:25.858Z,6.05
2022-09-05T05:43:14.345Z,6.57
2022-09-05T05:45:42.714Z,6.90
2022-09-05T05:48:26.170Z,10.82
2022-09-05T05:51:06.353Z,6.40
2022-09-05T05:53:44.445Z,7.67
2022-09-05T05:56:39.533Z,7.43
2022-09-05T05:59:25.238Z,9.65
2022-09-05T06:02:30.627Z,7.38
2022-09-05T06:05:25.550Z,6.85
2022-09-05T06:11:00.930Z,6.43
2022-09-05T06:14:57.126Z,6.35
2022-09-05T06:15:09.099Z,6.47
2022-09-05T06:18:11.713Z,7.85
2022-09-05T06:22:10.741Z,10.40
2022-09-05T06:24:01.828Z,12.73
2022-09-05T06:26:58.970Z,9.20
2022-09-05T06:29:38.660Z,7.75
2022-09-05T06:32:21.986Z,11.65
2022-09-05T06:35:31.257Z,4.65
2022-09-05T06:38:09.120Z,6.13
2022-09-05T06:40:41.116Z,6.95
2022-09-05T06:43:21.014Z,5.00
2022-09-05T06:46:55.328Z,6.28
2022-09-05T06:49:32.435Z,5.27
2022-09-05T06:52:45.912Z,4.68
2022-09-05T06:55:32.589Z,4.45
2022-09-05T06:58:18.132Z,3.97
2022-09-05T07:00:48.558Z,4.00
2022-09-05T07:03:33.240Z,3.90
2022-09-05T07:06:03.342Z,3.90
2022-09-05T07:08:39.222Z,4.25
2022-09-05T07:11:15.530Z,9.93
2022-09-05T07:13:53.830Z,4.20
2022-09-05T07:16:38.128Z,3.63
2022-09-05T07:19:24.392Z,3.60
2022-09-05T07:22:07.397Z,3.37
2022-09-05T07:24:56.502Z,2.97
2022-09-05T07:28:01.515Z,3.20
2022-09-05T07:30:25.421Z,3.13
2022-09-05T07:32:55.291Z,3.30
2022-09-05T07:35:26.849Z,3.30
2022-09-05T07:38:03.778Z,3.20
2022-09-05T07:40:34.249Z,3.60
2022-09-05T07:43:09.900Z,3.42
2022-09-05T07:45:52.240Z,2.95
2022-09-05T07:48:29.753Z,3.33
2022-09-05T07:56:53.218Z,3.38
2022-09-05T07:57:08.835Z,3.05
2022-09-05T07:57:22.220Z,3.00
2022-09-05T07:59:36.537Z,2.78
2022-09-05T08:02:07.836Z,2.80
2022-09-05T08:04:37.373Z,2.75
2022-09-05T08:07:46.175Z,2.50
2022-09-05T08:10:06.083Z,2.65
2022-09-05T08:13:00.616Z,2.50
2022-09-05T08:16:00.756Z,2.63
2022-09-05T08:18:22.557Z,2.53
2022-09-05T08:20:53.074Z,2.50
2022-09-05T08:23:33.321Z,2.53
2022-09-05T08:26:05.132Z,2.03
2022-09-05T08:28:40.893Z,2.13
2022-09-05T08:31:12.509Z,2.10
2022-09-05T08:33:43.359Z,2.17
2022-09-05T08:36:17.868Z,2.17
2022-09-05T08:38:45.944Z,2.13
2022-09-05T08:41:18.358Z,2.10
2022-09-05T08:46:37.994Z,1.90
2022-09-05T08:46:50.638Z,2.20
2022-09-05T08:49:38.746Z,2.20
2022-09-05T08:52:10.748Z,2.10
2022-09-05T08:54:47.442Z,2.20
2022-09-05T08:57:19.718Z,2.35
2022-09-05T09:00:06.348Z,2.10
2022-09-05T09:03:04.295Z,1.90
2022-09-05T09:05:58.087Z,1.88
2022-09-05T09:08:41.930Z,11.48
2022-09-05T09:11:15.340Z,2.05
2022-09-05T09:13:53.237Z,1.90
2022-09-05T09:16:30.470Z,1.80
2022-09-05T09:19:08.444Z,2.10
2022-09-05T09:21:42.025Z,1.90
2022-09-05T09:24:19.657Z,1.98
2022-09-05T09:26:52.653Z,2.35
2022-09-05T09:29:20.791Z,1.90
2022-09-05T09:32:02.581Z,1.70
2022-09-05T09:34:39.749Z,1.63
2022-09-05T09:37:54.365Z,1.80
2022-09-05T09:40:32.008Z,2.10
2022-09-05T09:43:07.211Z,1.65
2022-09-05T09:46:04.990Z,1.73
2022-09-05T09:48:52.505Z,1.90
2022-09-05T09:52:08.279Z,1.98
2022-09-05T09:55:23.417Z,2.03
2022-09-05T09:58:29.263Z,2.65
2022-09-05T10:01:20.270Z,2.00
2022-09-05T10:09:28.773Z,2.87
2022-09-05T10:10:56.271Z,2.08
2022-09-05T10:11:21.581Z,1.90
2022-09-05T10:13:57.382Z,2.10
2022-09-05T10:16:52.824Z,2.40
2022-09-05T10:20:11.194Z,1.85
2022-09-05T10:22:54.397Z,2.00
2022-09-05T10:25:48.509Z,2.00
2022-09-05T10:28:24.689Z,1.67
2022-09-05T10:33:51.395Z,1.58
2022-09-05T10:35:17.388Z,1.80
2022-09-05T10:36:39.079Z,1.85
2022-09-05T10:39:18.235Z,1.75
2022-09-05T10:41:50.873Z,1.73
2022-09-05T10:44:26.098Z,1.75
2022-09-05T10:47:01.060Z,1.65
2022-09-05T10:49:32.197Z,1.92
2022-09-05T10:52:03.527Z,1.60
2022-09-05T10:55:15.068Z,1.70
2022-09-05T10:57:58.393Z,1.60
2022-09-05T11:02:20.570Z,1.60
2022-09-05T11:03:54.592Z,1.70
2022-09-05T11:06:27.181Z,1.80
2022-09-05T11:09:03.690Z,1.60
2022-09-05T11:11:39.826Z,1.50
2022-09-05T11:14:27.440Z,2.53
2022-09-05T11:17:02.105Z,1.70
2022-09-05T11:19:35.986Z,2.50
2022-09-05T11:22:22.387Z,1.40
2022-09-05T11:24:55.531Z,1.50
2022-09-05T11:27:30.329Z,1.42
2022-09-05T11:30:02.312Z,1.50
2022-09-05T11:39:59.505Z,1.60
2022-09-05T11:40:05.888Z,1.48
2022-09-05T11:40:10.358Z,1.40
2022-09-05T11:42:11.898Z,1.50
2022-09-05T11:44:56.794Z,1.60
2022-09-05T11:48:27.644Z,1.40
2022-09-05T11:51:34.157Z,1.40
2022-09-05T11:54:22.490Z,1.90
2022-09-05T11:57:32.841Z,9.10
2022-09-05T12:00:32.155Z,2.40
2022-09-05T12:03:11.720Z,1.70
2022-09-05T12:06:14.520Z,1.50
2022-09-05T12:08:48.162Z,1.67
2022-09-05T12:11:31.416Z,1.35
2022-09-05T12:14:20.932Z,1.40
2022-09-05T12:16:57.788Z,1.42
2022-09-05T12:19:34.609Z,1.58
2022-09-05T12:22:29.501Z,1.75
2022-09-05T12:28:48.396Z,1.60
2022-09-05T12:32:53.891Z,1.60
2022-09-05T12:40:54.276Z,1.40
2022-09-05T12:41:35.535Z,1.50
2022-09-05T12:41:41.567Z,1.70
2022-09-05T12:42:10.809Z,2.22
2022-09-05T12:42:55.960Z,1.50
2022-09-05T12:45:40.425Z,1.70
2022-09-05T12:48:13.107Z,1.60
2022-09-05T12:50:47.735Z,1.40
2022-09-05T12:53:19.460Z,1.70
2022-09-05T12:56:47.962Z,1.90
2022-09-05T13:03:03.137Z,1.77
2022-09-05T13:03:04.851Z,2.00
2022-09-05T13:04:30.249Z,2.10
2022-09-05T13:07:01.339Z,1.77
2022-09-05T13:10:00.609Z,1.70
2022-09-05T13:14:54.035Z,1.70
2022-09-05T13:15:26.418Z,2.92
2022-09-05T13:18:00.258Z,1.55
2022-09-05T13:20:34.850Z,1.80
2022-09-05T13:23:08.532Z,2.08
2022-09-05T13:25:37.256Z,1.77
2022-09-05T13:28:08.584Z,1.85
2022-09-05T13:34:37.781Z,1.80
2022-09-05T13:37:58.802Z,1.50
2022-09-05T13:38:09.899Z,1.70
2022-09-05T13:39:12.393Z,1.70
2022-09-05T13:41:44.594Z,2.38
2022-09-05T13:44:25.352Z,1.77
2022-09-05T13:46:59.740Z,1.55
2022-09-05T13:49:32.389Z,2.30
2022-09-05T13:52:13.348Z,1.88
2022-09-05T13:54:47.516Z,2.60
2022-09-05T13:57:32.432Z,1.70
2022-09-05T14:00:51.461Z,1.40
2022-09-05T14:03:55.592Z,3.63
2022-09-05T14:10:09.529Z,1.75
2022-09-05T14:12:40.380Z,1.60
2022-09-05T14:15:25.135Z,2.00
2022-09-05T14:17:59.838Z,2.58
2022-09-05T14:20:49.747Z,2.28
2022-09-05T14:23:18.893Z,1.58
2022-09-05T14:25:52.512Z,1.50
2022-09-05T14:28:25.337Z,1.50
2022-09-05T14:35:16.395Z,1.53
2022-09-05T14:37:40.627Z,1.40
2022-09-05T14:37:44.073Z,1.50
2022-09-05T14:39:58.220Z,1.67
2022-09-05T14:42:40.592Z,2.38
2022-09-05T14:45:48.420Z,1.63
2022-09-05T14:48:53.096Z,1.67
2022-09-05T14:51:30.025Z,1.50
2022-09-05T14:54:01.769Z,1.50
2022-09-05T14:58:03.381Z,1.60
2022-09-05T15:02:42.987Z,1.80
2022-09-05T15:02:46.197Z,1.80
2022-09-05T15:05:18.227Z,1.77
2022-09-05T15:07:47.449Z,5.30
2022-09-05T15:12:24.308Z,5.40
2022-09-05T15:13:25.607Z,2.28
2022-09-05T15:16:02.260Z,1.90
2022-09-05T15:18:31.915Z,1.77
2022-09-05T15:21:30.611Z,1.90
2022-09-05T15:24:07.904Z,2.00
2022-09-05T15:26:53.043Z,1.77
2022-09-05T15:29:23.931Z,1.80
2022-09-05T15:32:00.961Z,1.70
2022-09-05T15:34:38.389Z,1.83
2022-09-05T15:37:22.816Z,2.22
2022-09-05T15:40:01.577Z,1.80
2022-09-05T15:42:32.798Z,2.00
2022-09-05T15:45:10.516Z,1.70
2022-09-05T15:47:41.753Z,1.70
2022-09-05T15:50:21.958Z,1.80
2022-09-05T15:52:55.717Z,1.50
2022-09-05T15:55:25.966Z,2.20
2022-09-05T15:57:56.922Z,1.80
2022-09-05T16:00:42.094Z,1.70
2022-09-05T16:04:05.663Z,1.70
2022-09-05T16:10:29.028Z,1.70
2022-09-05T16:10:41.149Z,1.95
2022-09-05T16:12:17.247Z,1.90
2022-09-05T16:14:39.895Z,2.20
2022-09-05T16:23:12.870Z,2.17
2022-09-05T16:23:34.528Z,1.92
2022-09-05T16:23:48.643Z,1.70
2022-09-05T16:26:04.177Z,2.10
2022-09-05T16:28:36.032Z,2.08
2022-09-05T16:31:09.498Z,2.20
2022-09-05T16:33:37.414Z,2.10
2022-09-05T16:36:15.474Z,1.70
2022-09-05T16:38:50.055Z,2.10
2022-09-05T16:41:24.417Z,2.20
2022-09-05T16:43:54.811Z,2.07
2022-09-05T16:46:31.263Z,2.17
2022-09-05T16:49:05.767Z,5.17
2022-09-05T16:51:43.139Z,5.32
2022-09-05T16:54:13.721Z,2.55
2022-09-05T16:56:44.153Z,2.45
2022-09-05T16:59:15.760Z,3.97
2022-09-05T17:02:05.789Z,2.50
2022-09-05T17:05:04.828Z,2.30
2022-09-05T17:07:42.593Z,7.60
2022-09-05T17:10:12.288Z,26.05
2022-09-05T17:12:41.973Z,5.20
2022-09-05T17:15:15.293Z,3.60
2022-09-05T17:18:20.411Z,2.60
2022-09-05T17:20:48.841Z,2.95
2022-09-05T17:24:46.497Z,3.60
2022-09-05T17:29:31.939Z,3.83
2022-09-05T17:29:42.079Z,3.40
2022-09-05T17:31:58.899Z,3.00
2022-09-05T17:35:16.610Z,3.15
2022-09-05T17:38:16.048Z,6.68
2022-09-05T17:41:07.918Z,6.70
2022-09-05T17:43:38.546Z,20.80
2022-09-05T17:46:17.477Z,31.10
2022-09-05T17:49:19.028Z,36.58
2022-09-05T17:52:18.173Z,15.67
2022-09-05T17:54:50.273Z,15.00
2022-09-05T17:57:40.151Z,10.20
2022-09-05T18:00:47.216Z,6.40
2022-09-05T18:04:16.657Z,5.20
2022-09-05T18:06:59.185Z,5.17
2022-09-05T18:16:10.750Z,5.40
2022-09-05T18:19:32.229Z,6.10
2022-09-05T18:21:48.110Z,5.97
2022-09-05T18:24:21.248Z,6.10
2022-09-05T18:26:56.137Z,6.25
2022-09-05T18:29:58.390Z,5.78
2022-09-05T18:32:45.491Z,10.87
2022-09-05T18:35:36.934Z,8.15
2022-09-05T18:38:16.567Z,10.02
2022-09-05T18:41:09.305Z,7.75
2022-09-05T18:44:13.667Z,6.60
2022-09-05T18:46:47.917Z,7.30
2022-09-05T18:50:23.340Z,9.30
2022-09-05T18:52:16.077Z,14.43
2022-09-05T18:54:46.051Z,12.07
2022-09-05T18:57:38.386Z,13.70
2022-09-05T19:00:10.370Z,11.52
2022-09-05T19:02:51.293Z,10.15
2022-09-05T19:05:37.514Z,7.63
2022-09-05T19:08:28.986Z,5.90
2022-09-05T19:11:00.169Z,6.55
2022-09-05T19:13:32.151Z,6.60
2022-09-05T19:16:43.609Z,5.90
2022-09-05T19:19:06.788Z,6.30
2022-09-05T19:21:34.861Z,5.95
2022-09-05T19:24:08.245Z,6.17
2022-09-05T19:26:36.286Z,5.60
2022-09-05T19:36:46.550Z,5.10
2022-09-05T19:36:55.953Z,4.88
2022-09-05T19:37:09.975Z,5.22
2022-09-05T19:37:44.495Z,5.28
2022-09-05T19:47:28.524Z,5.88
2022-09-05T19:47:30.332Z,5.50
2022-09-05T19:47:45.138Z,9.45
2022-09-05T19:49:07.085Z,6.50
2022-09-05T19:51:35.629Z,6.40
2022-09-05T19:54:05.835Z,6.30
2022-09-05T19:56:38.553Z,5.43
2022-09-05T19:59:17.038Z,6.20
2022-09-05T20:01:46.072Z,6.20
2022-09-05T20:04:18.902Z,5.82
2022-09-05T20:06:47.463Z,6.05
2022-09-05T20:09:16.668Z,6.00
2022-09-05T20:11:49.505Z,5.68
2022-09-05T20:14:23.679Z,5.80
2022-09-05T20:16:54.374Z,6.18
2022-09-05T20:19:28.910Z,5.90
2022-09-05T20:21:59.295Z,6.97
2022-09-05T20:24:40.929Z,6.53
2022-09-05T20:27:08.996Z,6.28
2022-09-05T20:29:54.029Z,6.47
2022-09-05T20:32:37.315Z,6.72
2022-09-05T20:37:15.772Z,6.30
2022-09-05T20:43:08.743Z,5.85
2022-09-05T20:43:24.926Z,6.07
2022-09-05T20:43:52.555Z,6.95
2022-09-05T20:54:07.287Z,6.80
2022-09-05T20:54:13.131Z,7.10
2022-09-05T20:54:14.955Z,7.13
2022-09-05T20:55:40.176Z,7.45
2022-09-05T20:58:11.760Z,7.32
2022-09-05T21:01:19.559Z,7.68
2022-09-05T21:03:36.491Z,6.47
2022-09-05T21:06:19.946Z,6.40
2022-09-05T21:08:49.376Z,6.60
2022-09-05T21:11:17.528Z,7.07
2022-09-05T21:13:53.040Z,7.20
2022-09-05T21:16:23.218Z,7.30
2022-09-05T21:18:52.174Z,7.15
2022-09-05T21:21:28.462Z,7.07
2022-09-05T21:24:16.324Z,7.13
2022-09-05T21:26:47.283Z,6.68
2022-09-05T21:29:17.517Z,5.90
2022-09-05T21:31:47.518Z,6.10
2022-09-05T21:34:23.316Z,5.90
2022-09-05T21:37:06.907Z,5.57
2022-09-05T21:39:46.701Z,5.40
2022-09-05T21:43:26.166Z,5.03
2022-09-05T21:47:49.354Z,4.93
2022-09-05T21:48:06.949Z,5.60
2022-09-05T21:50:39.712Z,4.87
2022-09-05T21:54:16.120Z,4.95
2022-09-05T21:59:14.831Z,4.93
2022-09-05T21:59:26.135Z,4.60
2022-09-05T22:01:51.994Z,4.70
2022-09-05T22:04:22.009Z,4.47
2022-09-05T22:06:50.412Z,4.82
2022-09-05T22:09:18.569Z,4.38
2022-09-05T22:11:50.560Z,4.57
2022-09-05T22:14:19.427Z,4.35
2022-09-05T22:16:50.467Z,4.22
2022-09-05T22:19:36.803Z,4.53
2022-09-05T22:22:15.848Z,4.60
2022-09-05T22:24:47.457Z,4.35
2022-09-05T22:27:19.853Z,4.70
2022-09-05T22:29:50.649Z,4.10
2022-09-05T22:32:34.641Z,4.05
2022-09-05T22:35:16.012Z,4.68
2022-09-05T22:37:59.401Z,4.57
2022-09-05T22:40:28.140Z,4.68
2022-09-05T22:42:58.120Z,4.70
2022-09-05T22:45:26.212Z,4.88
2022-09-05T22:47:54.144Z,5.13
2022-09-05T22:50:22.549Z,4.90
2022-09-05T22:52:50.605Z,4.95
2022-09-05T22:55:18.803Z,4.63
2022-09-05T22:57:46.669Z,4.32
2022-09-05T23:00:16.293Z,4.20
2022-09-05T23:02:46.062Z,4.60
2022-09-05T23:05:15.929Z,4.55
2022-09-05T23:07:43.804Z,4.10
2022-09-05T23:10:11.595Z,4.18
2022-09-05T23:12:39.390Z,4.20
2022-09-05T23:15:08.112Z,4.30
2022-09-05T23:17:37.242Z,4.05
2022-09-05T23:20:05.913Z,4.20
2022-09-05T23:22:36.567Z,3.40
2022-09-05T23:25:05.215Z,3.70
2022-09-05T23:27:36.064Z,3.47
2022-09-05T23:30:04.597Z,3.75
2022-09-05T23:32:32.685Z,3.80
2022-09-05T23:35:01.888Z,3.83
2022-09-05T23:37:29.922Z,3.50
2022-09-05T23:39:57.977Z,3.58
2022-09-05T23:42:25.800Z,3.70
2022-09-05T23:44:53.572Z,3.83
2022-09-05T23:47:21.398Z,3.30
2022-09-05T23:49:49.293Z,3.60
2022-09-05T23:52:18.388Z,3.47
2022-09-05T23:54:46.175Z,3.05
2022-09-05T23:57:13.935Z,3.53
2022-09-05T23:59:41.754Z,3.42
